createdAt,value
2023-05-25T00:01:28.128Z,100548.13
2023-05-25T00:04:37.112Z,100539.19
2023-05-25T00:07:39.469Z,100539.31
2023-05-25T00:10:41.536Z,100549.47
2023-05-25T00:13:43.402Z,100545.66
2023-05-25T00:16:48.306Z,100544.03
2023-05-25T00:19:50.505Z,100542.13
2023-05-25T00:22:56.111Z,100536.50
2023-05-25T00:25:58.032Z,100552.81
2023-05-25T00:29:00.967Z,100557.22
2023-05-25T00:32:02.958Z,100557.34
2023-05-25T00:35:05.144Z,100545.75
2023-05-25T00:38:07.020Z,100543.59
2023-05-25T00:41:09.064Z,100549.81
2023-05-25T00:44:11.691Z,100553.78
2023-05-25T00:47:13.560Z,100555.47
2023-05-25T00:50:15.602Z,100549.31
2023-05-25T00:53:17.559Z,100558.13
2023-05-25T00:56:23.820Z,100561.06
2023-05-25T00:59:35.745Z,100558.81
2023-05-25T01:02:38.634Z,100565.28
2023-05-25T01:05:43.153Z,100571.47
2023-05-25T01:08:47.877Z,100575.75
2023-05-25T01:11:50.235Z,100571.91
2023-05-25T01:14:53.370Z,100576.53
2023-05-25T01:17:59.716Z,100574.31
2023-05-25T01:21:29.149Z,100577.19
2023-05-25T01:24:33.851Z,100574.72
2023-05-25T01:27:38.389Z,100585.34
2023-05-25T01:30:42.177Z,100580.19
2023-05-25T01:33:44.627Z,100585.87
2023-05-25T01:36:46.757Z,100586.91
2023-05-25T01:39:48.830Z,100588.91
2023-05-25T01:42:50.887Z,100591.56
2023-05-25T01:45:53.089Z,100602.41
2023-05-25T01:48:56.670Z,100593.75
2023-05-25T01:52:04.673Z,100584.38
2023-05-25T01:55:07.492Z,100594.28
2023-05-25T01:58:09.798Z,100591.31
2023-05-25T02:01:12.576Z,100590.00
2023-05-25T02:04:18.206Z,100584.50
2023-05-25T02:07:20.160Z,100587.72
2023-05-25T02:10:22.031Z,100587.00
2023-05-25T02:13:23.917Z,100589.44
2023-05-25T02:16:27.663Z,100585.00
2023-05-25T02:19:30.130Z,100582.75
2023-05-25T02:22:32.975Z,100585.56
2023-05-25T02:25:35.118Z,100587.75
2023-05-25T02:28:37.084Z,100586.91
2023-05-25T02:31:39.065Z,100591.38
2023-05-25T02:34:41.331Z,100592.84
2023-05-25T02:37:43.264Z,100598.31
2023-05-25T02:40:46.245Z,100605.06
2023-05-25T02:43:48.196Z,100595.03
2023-05-25T02:46:50.167Z,100606.37
2023-05-25T02:49:52.368Z,100603.16
2023-05-25T02:52:55.110Z,100615.53
2023-05-25T02:55:57.087Z,100617.69
2023-05-25T02:58:59.149Z,100609.94
2023-05-25T03:02:01.204Z,100617.84
2023-05-25T03:05:04.643Z,100600.59
2023-05-25T03:08:06.816Z,100615.22
2023-05-25T03:11:08.699Z,100613.87
2023-05-25T03:14:13.463Z,100614.25
2023-05-25T03:17:15.764Z,100611.84
2023-05-25T03:20:17.687Z,100619.66
2023-05-25T03:23:19.676Z,100624.34
2023-05-25T03:26:21.684Z,100629.56
2023-05-25T03:29:23.573Z,100632.12
2023-05-25T03:32:25.529Z,100631.84
2023-05-25T03:35:27.468Z,100628.22
2023-05-25T03:38:29.538Z,100627.75
2023-05-25T03:41:31.444Z,100639.41
2023-05-25T03:44:33.333Z,100626.34
2023-05-25T03:47:36.177Z,100634.88
2023-05-25T03:50:40.112Z,100626.81
2023-05-25T03:53:42.259Z,100632.19
2023-05-25T03:56:44.142Z,100623.25
2023-05-25T03:59:47.114Z,100633.06
2023-05-25T04:02:49.326Z,100639.16
2023-05-25T04:05:51.312Z,100643.53
2023-05-25T04:08:53.201Z,100649.97
2023-05-25T04:11:55.330Z,100657.06
2023-05-25T04:14:57.178Z,100655.75
2023-05-25T04:17:59.807Z,100648.91
2023-05-25T04:21:01.878Z,100657.03
2023-05-25T04:24:03.851Z,100663.81
2023-05-25T04:27:06.138Z,100662.84
2023-05-25T04:30:08.872Z,100656.91
2023-05-25T04:33:13.486Z,100648.09
2023-05-25T04:36:15.435Z,100652.56
2023-05-25T04:39:17.341Z,100656.06
2023-05-25T04:42:19.761Z,100649.59
2023-05-25T04:45:21.692Z,100658.38
2023-05-25T04:48:24.880Z,100653.31
2023-05-25T04:51:26.810Z,100656.66
2023-05-25T04:54:28.817Z,100660.63
2023-05-25T04:57:31.612Z,100658.94
2023-05-25T05:00:34.408Z,100656.19
2023-05-25T05:03:36.920Z,100657.28
2023-05-25T05:06:39.350Z,100659.78
2023-05-25T05:09:41.382Z,100656.25
2023-05-25T05:12:43.405Z,100671.00
2023-05-25T05:15:45.479Z,100671.19
2023-05-25T05:18:47.844Z,100665.38
2023-05-25T05:21:49.742Z,100677.87
2023-05-25T05:24:51.687Z,100671.91
2023-05-25T05:27:53.776Z,100663.81
2023-05-25T05:30:55.887Z,100660.47
2023-05-25T05:33:58.152Z,100662.53
2023-05-25T05:37:03.079Z,100657.72
2023-05-25T05:40:05.444Z,100658.75
2023-05-25T05:43:07.499Z,100658.72
2023-05-25T05:46:10.618Z,100660.47
2023-05-25T05:49:12.588Z,100659.25
2023-05-25T05:52:14.472Z,100665.09
2023-05-25T05:55:16.739Z,100664.94
2023-05-25T05:58:18.783Z,100678.25
2023-05-25T06:01:22.057Z,100671.09
2023-05-25T06:04:26.783Z,100675.31
2023-05-25T06:07:30.819Z,100667.03
2023-05-25T06:10:33.082Z,100673.81
2023-05-25T06:13:35.028Z,100675.00
2023-05-25T06:16:37.487Z,100680.59
2023-05-25T06:19:39.382Z,100675.78
2023-05-25T06:22:41.292Z,100675.19
2023-05-25T06:25:43.730Z,100671.19
2023-05-25T06:28:47.763Z,100678.03
2023-05-25T06:31:49.730Z,100677.00
2023-05-25T06:34:51.751Z,100669.59
2023-05-25T06:37:53.684Z,100664.88
2023-05-25T06:40:55.729Z,100679.03
2023-05-25T06:43:57.689Z,100662.88
2023-05-25T06:46:59.637Z,100676.50
2023-05-25T06:50:01.806Z,100675.75
2023-05-25T06:53:04.198Z,100678.59
2023-05-25T06:56:06.679Z,100682.94
2023-05-25T06:59:09.203Z,100688.47
2023-05-25T07:02:11.114Z,100677.53
2023-05-25T07:05:13.319Z,100683.91
2023-05-25T07:08:15.377Z,100679.00
2023-05-25T07:11:20.796Z,100684.63
2023-05-25T07:14:22.893Z,100692.09
2023-05-25T07:17:24.912Z,100691.63
2023-05-25T07:20:27.580Z,100685.41
2023-05-25T07:23:29.565Z,100688.53
2023-05-25T07:26:32.443Z,100687.09
2023-05-25T07:29:36.827Z,100690.41
2023-05-25T07:32:38.883Z,100691.13
2023-05-25T07:35:41.063Z,100683.72
2023-05-25T07:38:43.070Z,100690.09
2023-05-25T07:41:45.158Z,100689.06
2023-05-25T07:44:48.266Z,100690.78
2023-05-25T07:47:50.229Z,100687.03
2023-05-25T07:50:52.962Z,100690.41
2023-05-25T07:53:56.616Z,100692.78
2023-05-25T07:56:58.745Z,100685.69
2023-05-25T08:00:00.933Z,100698.66
2023-05-25T08:03:03.242Z,100698.97
2023-05-25T08:06:06.168Z,100685.16
2023-05-25T08:09:14.038Z,100678.97
2023-05-25T08:12:34.302Z,100693.53
2023-05-25T08:15:37.985Z,100683.66
2023-05-25T08:18:41.004Z,100698.50
2023-05-25T08:21:42.933Z,100693.66
2023-05-25T08:24:44.870Z,100694.87
2023-05-25T08:27:47.331Z,100691.25
2023-05-25T08:30:49.480Z,100689.81
2023-05-25T08:33:51.680Z,100695.06
2023-05-25T08:36:53.728Z,100700.00
2023-05-25T08:39:56.025Z,100701.87
2023-05-25T08:42:57.980Z,100704.25
2023-05-25T08:46:03.554Z,100699.31
2023-05-25T08:49:08.833Z,100700.34
2023-05-25T08:52:11.342Z,100700.56
2023-05-25T08:55:13.961Z,100699.25
2023-05-25T08:58:20.130Z,100700.03
2023-05-25T09:01:22.277Z,100700.19
2023-05-25T09:04:26.418Z,100696.34
2023-05-25T09:07:29.142Z,100695.66
2023-05-25T09:10:31.105Z,100695.31
2023-05-25T09:13:35.398Z,100697.31
2023-05-25T09:16:40.084Z,100694.66
2023-05-25T09:19:42.270Z,100692.94
2023-05-25T09:22:44.573Z,100709.28
2023-05-25T09:25:47.107Z,100706.72
2023-05-25T09:28:49.390Z,100692.97
2023-05-25T09:31:51.345Z,100685.31
2023-05-25T09:34:55.817Z,100706.16
2023-05-25T09:37:58.892Z,100701.66
2023-05-25T09:41:01.394Z,100687.50
2023-05-25T09:44:11.553Z,100699.88
2023-05-25T09:47:15.573Z,100701.03
2023-05-25T09:50:18.072Z,100695.69
2023-05-25T09:53:21.178Z,100700.06
2023-05-25T09:56:25.771Z,100702.84
2023-05-25T09:59:27.782Z,100713.38
2023-05-25T10:02:29.867Z,100711.34
2023-05-25T10:05:31.852Z,100707.59
2023-05-25T10:08:33.857Z,100703.66
2023-05-25T10:11:36.432Z,100702.63
2023-05-25T10:14:38.605Z,100701.78
2023-05-25T10:17:45.818Z,100695.13
2023-05-25T10:20:48.046Z,100695.06
2023-05-25T10:23:51.259Z,100695.47
2023-05-25T10:26:54.131Z,100692.09
2023-05-25T10:29:56.580Z,100691.00
2023-05-25T10:32:58.529Z,100678.88
2023-05-25T10:36:09.224Z,100676.88
2023-05-25T10:39:12.545Z,100680.50
2023-05-25T10:42:14.555Z,100682.19
2023-05-25T10:45:16.935Z,100676.22
2023-05-25T10:48:19.119Z,100666.19
2023-05-25T10:51:21.897Z,100665.62
2023-05-25T10:54:23.927Z,100662.22
2023-05-25T10:57:28.529Z,100674.94
2023-05-25T11:00:31.400Z,100669.22
2023-05-25T11:03:48.896Z,100669.66
2023-05-25T11:06:51.003Z,100660.37
2023-05-25T11:09:59.460Z,100660.59
2023-05-25T11:13:20.493Z,100655.03
2023-05-25T11:16:25.393Z,100654.50
2023-05-25T11:19:27.711Z,100640.66
2023-05-25T11:22:33.130Z,100643.22
2023-05-25T11:25:36.858Z,100640.94
2023-05-25T11:28:45.493Z,100653.91
2023-05-25T11:31:49.910Z,100645.16
2023-05-25T11:34:52.962Z,100643.75
2023-05-25T11:37:55.407Z,100643.59
2023-05-25T11:40:57.592Z,100640.03
2023-05-25T11:44:08.628Z,100642.00
2023-05-25T11:47:14.202Z,100627.47
2023-05-25T11:50:17.249Z,100628.31
2023-05-25T11:53:21.516Z,100626.19
2023-05-25T11:56:34.269Z,100619.44
2023-05-25T11:59:39.586Z,100616.69
2023-05-25T12:02:42.008Z,100608.66
2023-05-25T12:05:44.269Z,100613.19
2023-05-25T12:08:46.458Z,100597.59
2023-05-25T12:11:48.581Z,100610.34
2023-05-25T12:14:53.647Z,100615.84
2023-05-25T12:17:55.750Z,100610.00
2023-05-25T12:20:57.836Z,100611.84
2023-05-25T12:24:00.317Z,100613.00
2023-05-25T12:27:04.903Z,100611.34
2023-05-25T12:30:08.955Z,100601.69
2023-05-25T12:33:12.618Z,100604.06
2023-05-25T12:36:14.551Z,100601.38
2023-05-25T12:39:17.303Z,100607.16
2023-05-25T12:42:19.664Z,100612.28
2023-05-25T12:45:24.524Z,100605.03
2023-05-25T12:48:26.901Z,100590.56
2023-05-25T12:51:37.655Z,100587.19
2023-05-25T12:54:46.081Z,100600.34
2023-05-25T12:57:52.487Z,100593.72
2023-05-25T13:00:54.402Z,100590.28
2023-05-25T13:03:56.550Z,100585.78
2023-05-25T13:06:58.765Z,100583.63
2023-05-25T13:10:00.945Z,100580.59
2023-05-25T13:13:03.897Z,100579.94
2023-05-25T13:16:06.104Z,100569.28
2023-05-25T13:19:08.055Z,100562.87
2023-05-25T13:22:09.947Z,100568.87
2023-05-25T13:25:12.342Z,100566.22
2023-05-25T13:28:14.329Z,100560.84
2023-05-25T13:31:16.409Z,100557.47
2023-05-25T13:34:18.459Z,100559.16
2023-05-25T13:37:20.553Z,100550.38
2023-05-25T13:40:22.440Z,100550.16
2023-05-25T13:43:24.582Z,100538.72
2023-05-25T13:49:35.322Z,100530.06
2023-05-25T13:52:37.740Z,100530.56
2023-05-25T13:55:39.997Z,100518.28
2023-05-25T13:58:41.946Z,100518.78
2023-05-25T14:01:44.004Z,100514.25
2023-05-25T14:04:46.029Z,100505.44
2023-05-25T14:07:48.482Z,100515.72
2023-05-25T14:10:50.590Z,100508.47
2023-05-25T14:13:52.508Z,100506.75
2023-05-25T14:16:54.689Z,100513.56
2023-05-25T14:19:56.700Z,100507.13
2023-05-25T14:22:58.681Z,100507.41
2023-05-25T14:26:00.645Z,100500.31
2023-05-25T14:29:02.715Z,100501.22
2023-05-25T14:32:04.935Z,100500.38
2023-05-25T14:35:07.037Z,100495.97
2023-05-25T14:38:09.129Z,100503.28
2023-05-25T14:41:11.008Z,100496.28
2023-05-25T14:44:13.003Z,100486.41
2023-05-25T14:47:15.124Z,100491.75
2023-05-25T14:50:17.124Z,100499.16
2023-05-25T14:53:19.207Z,100486.41
2023-05-25T14:56:24.910Z,100489.16
2023-05-25T14:59:26.867Z,100487.87
2023-05-25T15:02:29.213Z,100481.19
2023-05-25T15:05:31.371Z,100483.16
2023-05-25T15:08:33.545Z,100481.47
2023-05-25T15:11:35.478Z,100484.53
2023-05-25T15:14:40.170Z,100487.87
2023-05-25T15:17:42.214Z,100488.94
2023-05-25T15:20:44.325Z,100482.66
2023-05-25T15:23:48.552Z,100483.47
2023-05-25T15:26:50.667Z,100485.50
2023-05-25T15:29:52.577Z,100475.38
2023-05-25T15:32:54.803Z,100490.91
2023-05-25T15:35:56.829Z,100469.66
2023-05-25T15:38:59.044Z,100482.53
2023-05-25T15:42:01.770Z,100476.88
2023-05-25T15:45:04.023Z,100479.91
2023-05-25T15:48:09.545Z,100484.50
2023-05-25T15:51:11.602Z,100483.81
2023-05-25T15:54:14.701Z,100477.72
2023-05-25T15:57:18.458Z,100473.00
2023-05-25T16:00:20.496Z,100488.09
2023-05-25T16:03:22.508Z,100481.13
2023-05-25T16:06:24.398Z,100482.19
2023-05-25T16:09:26.416Z,100476.34
2023-05-25T17:20:24.430Z,100490.00
2023-05-25T17:23:26.698Z,100493.97
2023-05-25T17:26:28.759Z,100497.00
2023-05-25T17:29:31.906Z,100503.84
2023-05-25T17:32:34.197Z,100513.94
2023-05-25T17:35:36.434Z,100493.28
2023-05-25T17:38:38.406Z,100499.31
2023-05-25T17:41:40.475Z,100491.34
2023-05-25T17:44:42.708Z,100498.13
2023-05-25T17:47:44.909Z,100495.34
2023-05-25T17:50:46.897Z,100496.59
2023-05-25T17:53:49.389Z,100492.19
2023-05-25T17:56:54.322Z,100491.50
2023-05-25T17:59:56.263Z,100492.06
2023-05-25T18:02:58.331Z,100491.81
2023-05-25T18:06:00.403Z,100504.44
2023-05-25T18:09:02.775Z,100506.22
2023-05-25T18:12:04.784Z,100505.44
2023-05-25T18:15:07.595Z,100510.66
2023-05-25T18:18:09.717Z,100509.81
2023-05-25T18:21:11.782Z,100506.53
2023-05-25T18:24:13.834Z,100508.03
2023-05-25T18:27:16.371Z,100518.19
